createdAt,value
2016-04-24T09:34:18.787Z,2312
2016-04-24T09:35:18.931Z,2384
2016-04-24T09:36:19.793Z,3476
2016-04-24T09:37:18.873Z,4308
2016-04-24T09:38:18.861Z,5944
2016-04-24T09:39:18.910Z,3192
2016-04-24T09:40:18.804Z,3964
2016-04-24T09:41:18.775Z,5592
2016-04-24T09:42:18.747Z,7492
2016-04-24T09:43:18.750Z,9856
2016-04-24T09:44:18.689Z,10016
2016-04-24T09:45:18.661Z,9596
2016-04-24T09:46:18.648Z,8224
2016-04-24T09:47:18.605Z,6724
2016-04-24T09:48:18.591Z,6160
2016-04-24T09:49:18.578Z,4988
2016-04-24T09:50:18.533Z,4700
2016-04-24T09:51:18.505Z,4264
2016-04-24T09:52:18.476Z,4228
2016-04-24T09:53:18.449Z,4180
2016-04-24T09:54:18.513Z,4120
2016-04-24T09:55:18.391Z,4072
2016-04-24T09:56:18.378Z,4016
2016-04-24T09:57:18.334Z,3968
2016-04-24T09:58:18.305Z,3924
2016-04-24T09:59:18.292Z,3888
2016-04-24T10:00:18.248Z,3844
2016-04-24T10:01:18.235Z,3848
2016-04-24T10:02:18.191Z,3844
2016-04-24T10:03:18.225Z,3836
2016-04-24T10:04:18.150Z,3828
2016-04-24T10:05:18.106Z,3816
2016-04-24T10:06:18.123Z,3800
2016-04-24T10:07:18.017Z,3796
2016-04-24T10:08:18.067Z,3792
2016-04-24T10:09:18.070Z,3776
2016-04-24T10:10:18.056Z,3764
2016-04-24T10:11:17.950Z,3768
2016-04-24T10:12:17.906Z,3764
2016-04-24T10:13:18.049Z,3780
2016-04-24T10:14:17.848Z,3800
2016-04-24T10:15:17.820Z,3808
2016-04-24T10:16:17.791Z,3808
2016-04-24T10:17:17.763Z,3888
2016-04-24T10:18:17.750Z,4396
2016-04-24T10:19:17.705Z,4044
2016-04-24T10:20:17.694Z,3880
2016-04-24T10:21:17.680Z,3880
2016-04-24T10:22:17.635Z,3896
2016-04-24T10:23:17.607Z,3964
2016-04-24T10:24:17.609Z,3988
2016-04-24T10:25:17.285Z,4500
2016-04-24T10:26:17.505Z,5900
2016-04-24T10:27:17.493Z,5352
2016-04-24T10:28:17.464Z,4556
2016-04-24T10:29:17.468Z,4280
2016-04-24T10:30:17.407Z,4572
2016-04-24T10:31:17.379Z,4832
2016-04-24T10:32:17.350Z,5436
2016-04-24T10:33:17.321Z,6228
2016-04-24T10:34:17.293Z,6992
2016-04-24T10:35:17.265Z,5760
2016-04-24T10:36:17.252Z,5428
2016-04-24T10:37:17.223Z,6316
2016-04-24T10:38:17.209Z,8252
2016-04-24T10:39:17.056Z,9988
2016-04-24T10:40:18.106Z,11808
2016-04-24T10:41:17.108Z,13152
2016-04-24T10:42:17.080Z,13452
2016-04-24T10:43:17.067Z,14492
2016-04-24T10:44:17.054Z,16124
2016-04-24T10:45:17.026Z,17116
2016-04-24T10:46:16.997Z,16088
2016-04-24T10:47:16.796Z,15408
2016-04-24T10:48:16.769Z,12936
2016-04-24T10:49:16.911Z,12764
2016-04-24T10:50:16.899Z,15620
2016-04-24T10:51:16.855Z,14536
2016-04-24T10:52:16.825Z,12348
2016-04-24T10:53:16.813Z,10488
2016-04-24T10:54:17.003Z,9932
2016-04-24T10:55:17.568Z,10496
2016-04-24T10:56:16.727Z,14300
2016-04-24T10:57:16.699Z,16724
2016-04-24T10:58:16.685Z,17772
2016-04-24T10:59:16.648Z,18056
2016-04-24T11:00:16.676Z,15868
2016-04-24T11:01:16.688Z,13232
2016-04-24T11:02:16.701Z,11464
2016-04-24T11:03:16.714Z,9704
2016-04-24T11:04:16.737Z,7792
2016-04-24T11:05:16.724Z,6100
2016-04-24T11:06:16.695Z,4932
2016-04-24T11:07:16.493Z,4276
2016-04-24T11:08:16.683Z,3908
2016-04-24T11:09:17.543Z,3708
2016-04-24T11:10:16.974Z,3632
2016-04-24T11:11:16.622Z,3640
2016-04-24T11:12:16.615Z,3656
2016-04-24T11:13:16.623Z,3680
2016-04-24T11:14:16.583Z,3708
2016-04-24T11:15:16.541Z,3740
2016-04-24T11:16:16.530Z,3776
2016-04-24T11:17:16.503Z,3832
2016-04-24T11:18:16.477Z,3884
2016-04-24T11:19:16.465Z,4004
2016-04-24T11:20:16.422Z,4252
2016-04-24T11:21:16.409Z,4616
2016-04-24T11:22:16.209Z,5420
2016-04-24T11:23:16.352Z,5972
2016-04-24T11:24:16.449Z,7304
2016-04-24T11:25:16.343Z,9872
2016-04-24T11:26:16.268Z,9772
2016-04-24T11:27:16.240Z,9484
2016-04-24T11:28:16.227Z,8576
2016-04-24T11:29:16.200Z,7988
2016-04-24T11:30:16.171Z,8192
2016-04-24T11:31:16.126Z,9476
2016-04-24T11:32:16.114Z,10272
2016-04-24T11:33:16.100Z,10904
2016-04-24T11:34:16.072Z,11504
2016-04-24T11:35:16.043Z,12496
2016-04-24T11:36:16.030Z,14472
2016-04-24T11:37:15.986Z,16820
2016-04-24T11:38:15.989Z,19520
2016-04-24T11:39:17.085Z,20864
2016-04-24T11:40:16.588Z,21152
2016-04-24T11:41:15.902Z,17032
2016-04-24T11:42:15.890Z,9344
2016-04-24T11:43:15.847Z,4680
2016-04-24T11:44:15.833Z,3084
2016-04-24T11:45:15.804Z,3592
2016-04-24T11:46:15.791Z,6400
2016-04-24T11:47:15.748Z,8468
2016-04-24T11:48:15.719Z,11480
2016-04-24T11:49:15.706Z,15940
2016-04-24T11:50:15.693Z,20320
2016-04-24T11:51:15.649Z,22144
2016-04-24T11:52:15.637Z,22016
2016-04-24T11:53:15.592Z,21856
2016-04-24T11:54:15.579Z,21664
2016-04-24T11:55:15.738Z,21568
2016-04-24T11:56:15.522Z,21504
2016-04-24T11:57:15.525Z,21664
2016-04-24T11:58:15.481Z,22016
2016-04-24T11:59:15.451Z,22176
2016-04-24T12:00:15.439Z,21792
2016-04-24T12:01:15.394Z,20544
2016-04-24T12:02:15.381Z,18496
2016-04-24T12:03:15.353Z,15952
2016-04-24T12:04:15.340Z,14024
2016-04-24T12:05:15.311Z,13008
2016-04-24T12:06:15.283Z,13136
2016-04-24T12:07:15.255Z,14324
2016-04-24T12:08:15.225Z,15100
2016-04-24T12:09:15.978Z,14552
2016-04-24T12:10:15.560Z,12620
2016-04-24T12:11:15.171Z,10444
2016-04-24T12:12:15.143Z,8644
2016-04-24T12:13:15.114Z,7472
2016-04-24T12:14:15.101Z,6892
2016-04-24T12:15:15.057Z,6964
2016-04-24T12:16:15.029Z,6980
2016-04-24T12:17:15.032Z,7064
2016-04-24T12:18:14.987Z,7728
2016-04-24T12:19:14.990Z,9468
2016-04-24T12:20:14.945Z,10716
2016-04-24T12:21:14.932Z,10512
2016-04-24T12:22:15.029Z,9324
2016-04-24T12:23:14.859Z,8124
2016-04-24T12:24:14.832Z,7500
2016-04-24T12:25:15.115Z,7396
2016-04-24T12:26:14.790Z,7548
2016-04-24T12:27:14.762Z,7788
2016-04-24T12:28:14.748Z,8308
2016-04-24T12:29:14.704Z,9092
2016-04-24T12:30:14.676Z,9440
2016-04-24T12:31:14.662Z,9736
2016-04-24T12:32:14.619Z,10092
2016-04-24T12:33:14.622Z,10572
2016-04-24T12:34:14.577Z,10924
2016-04-24T12:35:14.548Z,10932
2016-04-24T12:36:14.520Z,10572
2016-04-24T12:37:14.507Z,9916
2016-04-24T12:38:14.494Z,9056
2016-04-24T12:39:14.466Z,8020
2016-04-24T12:40:14.811Z,6900
2016-04-24T12:41:14.408Z,5928
2016-04-24T12:42:14.380Z,5168
2016-04-24T12:43:14.351Z,4588
2016-04-24T12:44:14.338Z,4128
2016-04-24T12:45:14.279Z,3800
2016-04-24T12:46:14.250Z,3584
2016-04-24T12:47:14.238Z,3436
2016-04-24T12:48:14.208Z,3356
2016-04-24T12:49:14.195Z,3320
2016-04-24T12:50:14.168Z,3312
2016-04-24T12:51:14.170Z,3332
2016-04-24T12:52:14.126Z,3360
2016-04-24T12:53:14.091Z,3392
2016-04-24T12:54:14.061Z,3460
2016-04-24T12:55:14.033Z,3536
2016-04-24T12:56:14.004Z,3724
2016-04-24T12:57:13.992Z,4024
2016-04-24T12:58:13.963Z,3960
2016-04-24T12:59:13.919Z,4444
2016-04-24T13:00:13.890Z,4648
2016-04-24T13:01:13.877Z,5840
2016-04-24T13:02:13.865Z,7436
2016-04-24T13:03:13.821Z,10436
2016-04-24T13:04:13.807Z,8172
2016-04-24T13:05:13.810Z,8164
2016-04-24T13:06:13.593Z,11704
2016-04-24T13:07:13.721Z,11872
2016-04-24T13:08:13.693Z,9908
2016-04-24T13:09:13.679Z,8172
2016-04-24T13:10:13.887Z,8816
2016-04-24T13:11:13.623Z,7756
2016-04-24T13:12:13.610Z,5236
2016-04-24T13:13:13.612Z,4476
2016-04-24T13:14:13.537Z,4180
2016-04-24T13:15:13.508Z,4568
2016-04-24T13:16:13.495Z,4452
2016-04-24T13:17:13.451Z,4188
2016-04-24T13:18:13.439Z,4648
2016-04-24T13:19:13.441Z,5452
2016-04-24T13:20:13.397Z,4576
2016-04-24T13:21:13.369Z,3372
2016-04-24T13:22:13.340Z,3220
2016-04-24T13:23:13.311Z,3692
2016-04-24T13:24:13.283Z,3448
2016-04-24T13:25:13.223Z,3580
2016-04-24T13:26:13.242Z,4248
2016-04-24T13:27:13.213Z,4668
2016-04-24T13:28:13.185Z,5400
2016-04-24T13:29:13.234Z,6644
2016-04-24T13:30:16.768Z,7552
2016-04-24T13:31:13.114Z,10228
2016-04-24T13:32:13.071Z,10948
2016-04-24T13:33:13.057Z,9608
2016-04-24T13:34:13.028Z,8692
2016-04-24T13:35:13.015Z,10540
2016-04-24T13:36:12.971Z,11628
2016-04-24T13:37:12.959Z,12788
2016-04-24T13:38:12.929Z,12520
2016-04-24T13:39:12.901Z,11284
2016-04-24T13:40:12.951Z,9912
2016-04-24T13:41:12.766Z,10780
2016-04-24T13:42:12.831Z,12948
2016-04-24T13:43:12.803Z,12828
2016-04-24T13:44:12.789Z,12064
2016-04-24T13:45:12.762Z,9672
2016-04-24T13:46:12.717Z,7584
2016-04-24T13:47:12.704Z,5984
2016-04-24T13:48:12.691Z,4864
2016-04-24T13:49:12.662Z,4184
2016-04-24T13:50:12.634Z,3712
2016-04-24T13:51:12.622Z,3632
2016-04-24T13:52:12.577Z,3672
2016-04-24T13:53:12.548Z,3576
2016-04-24T13:54:12.536Z,3464
2016-04-24T13:55:12.616Z,3308
2016-04-24T13:56:12.478Z,3232
2016-04-24T13:57:12.450Z,3260
2016-04-24T13:58:12.421Z,3196
2016-04-24T13:59:12.393Z,3292
2016-04-24T14:00:12.380Z,3320
2016-04-24T14:01:12.351Z,3360
2016-04-24T14:02:12.322Z,3452
2016-04-24T14:03:12.310Z,3548
2016-04-24T14:04:12.296Z,3656
2016-04-24T14:05:12.268Z,3380
2016-04-24T14:06:12.223Z,3756
2016-04-24T14:07:12.226Z,3860
2016-04-24T14:08:12.182Z,4500
2016-04-24T14:09:12.154Z,5508
2016-04-24T14:10:12.360Z,7420
2016-04-24T14:11:13.003Z,10008
2016-04-24T14:12:12.068Z,12308
2016-04-24T14:13:12.071Z,13960
2016-04-24T14:14:12.009Z,14840
2016-04-24T14:15:11.996Z,15760
2016-04-24T14:16:11.972Z,17020
2016-04-24T14:17:11.803Z,17584
2016-04-24T14:18:12.055Z,18336
2016-04-24T14:19:17.311Z,17580
2016-04-24T14:20:11.733Z,15852
2016-04-24T14:21:11.861Z,15316
2016-04-24T14:22:11.816Z,10440
2016-04-24T14:23:11.788Z,5768
2016-04-24T14:24:11.759Z,3904
2016-04-24T14:25:12.294Z,3956
2016-04-24T14:26:12.077Z,5068
2016-04-24T14:27:11.689Z,6040
2016-04-24T14:28:11.661Z,6176
2016-04-24T14:29:11.664Z,7916
2016-04-24T14:30:11.635Z,8812
2016-04-24T14:31:11.590Z,9648
2016-04-24T14:32:11.577Z,8968
2016-04-24T14:33:11.548Z,8164
2016-04-24T14:34:11.520Z,7528
2016-04-24T14:35:11.507Z,6976
2016-04-24T14:36:11.463Z,6500
2016-04-24T14:37:11.465Z,6084
2016-04-24T14:38:11.438Z,5664
2016-04-24T14:39:11.394Z,5228
2016-04-24T14:40:11.537Z,4844
2016-04-24T14:41:12.382Z,4524
2016-04-24T14:42:11.324Z,4280
2016-04-24T14:43:11.295Z,4068
2016-04-24T14:44:11.265Z,3840
2016-04-24T14:45:11.237Z,3420
2016-04-24T14:46:11.225Z,3376
2016-04-24T14:47:11.195Z,3516
2016-04-24T14:48:11.183Z,3448
2016-04-24T14:49:11.154Z,3348
2016-04-24T14:50:11.111Z,3288
2016-04-24T14:51:11.097Z,3228
2016-04-24T14:52:11.069Z,3188
2016-04-24T14:53:11.025Z,3152
2016-04-24T14:54:11.012Z,3124
2016-04-24T14:55:11.967Z,3112
2016-04-24T14:56:10.814Z,3100
2016-04-24T14:57:10.942Z,3100
2016-04-24T14:58:10.897Z,2676
2016-04-24T14:59:10.885Z,2600
2016-04-24T15:00:10.856Z,2920
2016-04-24T15:01:10.859Z,2520
2016-04-24T15:02:10.814Z,2432
2016-04-24T15:03:10.786Z,2376
2016-04-24T15:04:10.758Z,2328
2016-04-24T15:05:10.744Z,2308
2016-04-24T15:06:10.716Z,2344
2016-04-24T15:07:10.672Z,2336
2016-04-24T15:08:10.659Z,2272
2016-04-24T15:09:10.615Z,2220
2016-04-24T15:10:10.321Z,2216
2016-04-24T15:11:10.292Z,2292
2016-04-24T15:12:10.560Z,2376
2016-04-24T15:13:10.516Z,2260
2016-04-24T15:14:10.488Z,2332
2016-04-24T15:15:10.459Z,2552
2016-04-24T15:16:10.446Z,2776
2016-04-24T15:17:10.417Z,2836
2016-04-24T15:18:10.389Z,2820
2016-04-24T15:19:10.360Z,3004
2016-04-24T15:20:10.332Z,3312
2016-04-24T15:21:10.303Z,3328
2016-04-24T15:22:10.150Z,3360
2016-04-24T15:23:10.245Z,3392
2016-04-24T15:24:10.217Z,3420
2016-04-24T15:25:10.908Z,3436
2016-04-24T15:26:10.145Z,3444
2016-04-24T15:27:10.148Z,3452
2016-04-24T15:28:10.134Z,3472
2016-04-24T15:29:10.091Z,3536
2016-04-24T15:30:10.061Z,3648
2016-04-24T15:31:10.049Z,3832
2016-04-24T15:32:09.989Z,4136
2016-04-24T15:33:09.992Z,4540
2016-04-24T15:34:09.947Z,5124
2016-04-24T15:35:09.935Z,5824
2016-04-24T15:36:09.922Z,6472
2016-04-24T15:37:09.877Z,7660
2016-04-24T15:38:09.849Z,8712
2016-04-24T15:39:09.820Z,8952
2016-04-24T15:40:09.995Z,8392
2016-04-24T15:41:10.060Z,8060
2016-04-24T15:42:09.735Z,8308
2016-04-24T15:43:09.706Z,8788
2016-04-24T15:44:09.709Z,9716
2016-04-24T15:45:09.680Z,10412
2016-04-24T15:46:09.636Z,9684
2016-04-24T15:47:09.623Z,8736
2016-04-24T15:48:09.578Z,8668
2016-04-24T15:49:09.551Z,8648
2016-04-24T15:50:09.537Z,8728
2016-04-24T15:51:09.509Z,8096
2016-04-24T15:52:09.480Z,7496
2016-04-24T15:53:09.451Z,7668
2016-04-24T15:54:09.439Z,8908
2016-04-24T15:55:11.523Z,10264
2016-04-24T15:56:11.494Z,10204
2016-04-24T15:57:09.950Z,10460
2016-04-24T15:58:09.325Z,10448
2016-04-24T15:59:10.209Z,9660
2016-04-24T16:00:09.259Z,8852
2016-04-24T16:01:09.262Z,8336
2016-04-24T16:02:09.217Z,7700
2016-04-24T16:03:09.188Z,7192
2016-04-24T16:04:09.191Z,5900
2016-04-24T16:05:09.148Z,4020
2016-04-24T16:06:09.118Z,3204
2016-04-24T16:07:09.106Z,2656
2016-04-24T16:08:09.069Z,2504
2016-04-24T16:09:09.039Z,2412
2016-04-24T16:10:10.761Z,2168
2016-04-24T16:11:08.983Z,2092
2016-04-24T16:12:08.969Z,2216
2016-04-24T16:13:08.972Z,2272
2016-04-24T16:14:08.928Z,2328
2016-04-24T16:15:08.899Z,2392
2016-04-24T16:16:08.871Z,2428
2016-04-24T16:17:08.843Z,2428
2016-04-24T16:18:08.845Z,2484
2016-04-24T16:19:08.785Z,2692
2016-04-24T16:20:08.757Z,2940
2016-04-24T16:21:08.744Z,3124
2016-04-24T16:22:08.715Z,3536
2016-04-24T16:23:08.718Z,4264
2016-04-24T16:24:08.673Z,4956
2016-04-24T16:25:08.645Z,5552
2016-04-24T16:26:09.163Z,5444
2016-04-24T16:27:08.573Z,5008
2016-04-24T16:28:08.559Z,4648
2016-04-24T16:29:08.531Z,4724
2016-04-24T16:30:08.502Z,4932
2016-04-24T16:31:08.490Z,5468
2016-04-24T16:32:08.462Z,5540
2016-04-24T16:33:08.307Z,5056
2016-04-24T16:34:08.419Z,4276
2016-04-24T16:35:08.375Z,3216
2016-04-24T16:36:08.362Z,2872
2016-04-24T16:37:08.334Z,2640
2016-04-24T16:38:08.289Z,2488
2016-04-24T16:39:08.277Z,2464
2016-04-24T16:40:08.248Z,2468
2016-04-24T16:41:07.953Z,2540
2016-04-24T16:42:08.191Z,2904
2016-04-24T16:43:08.163Z,2600
2016-04-24T16:44:08.150Z,2564
2016-04-24T16:45:08.136Z,2544
2016-04-24T16:46:08.092Z,2460
2016-04-24T16:47:08.064Z,2376
2016-04-24T16:48:08.036Z,2344
2016-04-24T16:49:08.038Z,2772
2016-04-24T16:50:07.977Z,3680
2016-04-24T16:51:07.966Z,4512
2016-04-24T16:52:07.952Z,4456
2016-04-24T16:53:07.908Z,4452
2016-04-24T16:54:07.895Z,4136
2016-04-24T16:55:07.851Z,3700
2016-04-24T16:56:07.557Z,3612
2016-04-24T16:57:07.794Z,4132
2016-04-24T16:58:07.781Z,4224
2016-04-24T16:59:07.737Z,3868
2016-04-24T17:00:07.739Z,3564
2016-04-24T17:01:07.696Z,3416
2016-04-24T17:02:07.682Z,3128
2016-04-24T17:03:07.654Z,2904
2016-04-24T17:04:07.609Z,2812
2016-04-24T17:05:07.581Z,2864
2016-04-24T17:06:07.584Z,3000
2016-04-24T17:07:07.571Z,3144
2016-04-24T17:08:07.511Z,3236
2016-04-24T17:09:07.483Z,3340
2016-04-24T17:10:07.454Z,3496
2016-04-24T17:11:07.019Z,3660
2016-04-24T17:12:07.397Z,3744
2016-04-24T17:13:07.369Z,3652
2016-04-24T17:14:07.340Z,3516
2016-04-24T17:15:07.327Z,3228
2016-04-24T17:16:07.298Z,3056
2016-04-24T17:17:07.269Z,3048
2016-04-24T17:18:07.225Z,3040
2016-04-24T17:19:07.213Z,3180
2016-04-24T17:20:07.183Z,3380
2016-04-24T17:21:07.171Z,3576
2016-04-24T17:22:07.143Z,3888
2016-04-24T17:23:07.099Z,4604
2016-04-24T17:24:07.069Z,4404
2016-04-24T17:25:07.041Z,3900
2016-04-24T17:26:07.293Z,3056
2016-04-24T17:27:06.999Z,2516
2016-04-24T17:28:06.987Z,2240
2016-04-24T17:29:06.943Z,2084
2016-04-24T17:30:06.914Z,2004
2016-04-24T17:31:06.885Z,1952
2016-04-24T17:32:06.873Z,1920
2016-04-24T17:33:06.828Z,1892
2016-04-24T17:34:06.815Z,1872
2016-04-24T17:35:06.803Z,1844
2016-04-24T17:36:06.743Z,1824
2016-04-24T17:37:06.729Z,1800
2016-04-24T17:38:06.686Z,1780
2016-04-24T17:39:06.672Z,1756
2016-04-24T17:40:06.660Z,1736
2016-04-24T17:41:06.459Z,1716
2016-04-24T17:42:06.603Z,1700
2016-04-24T17:43:06.558Z,1692
2016-04-24T17:44:06.545Z,1692
2016-04-24T17:45:06.500Z,1720
2016-04-24T17:46:06.472Z,1760
2016-04-24T17:47:06.460Z,1768
2016-04-24T17:48:06.431Z,1808
2016-04-24T17:49:06.419Z,1860
2016-04-24T17:50:06.374Z,1856
2016-04-24T17:51:06.346Z,1852
2016-04-24T17:52:06.316Z,1764
2016-04-24T17:53:06.289Z,1616
2016-04-24T17:54:06.260Z,1500
2016-04-24T17:55:06.247Z,1424
2016-04-24T17:56:06.218Z,1376
2016-04-24T17:57:06.190Z,1340
2016-04-24T17:58:06.160Z,1224
2016-04-24T17:59:06.117Z,1292
2016-04-24T18:00:06.088Z,1272
2016-04-24T18:01:06.060Z,1256
2016-04-24T18:02:06.031Z,1216
2016-04-24T18:03:06.034Z,1176
2016-04-24T18:04:06.006Z,1120
2016-04-24T18:05:05.976Z,1088
2016-04-24T18:06:05.995Z,1052
2016-04-24T18:07:05.904Z,1024
2016-04-24T18:08:05.875Z,1012
2016-04-24T18:09:05.862Z,992
2016-04-24T18:10:05.834Z,964
2016-04-24T18:11:05.837Z,940
2016-04-24T18:12:05.778Z,912
2016-04-24T18:13:05.748Z,888
2016-04-24T18:14:05.720Z,864
2016-04-24T18:15:05.691Z,828
2016-04-24T18:16:05.663Z,800
2016-04-24T18:17:05.509Z,768
2016-04-24T18:18:05.605Z,732
2016-04-24T18:19:05.577Z,696
2016-04-24T18:20:05.549Z,664
2016-04-24T18:21:05.536Z,636
2016-04-24T18:22:05.491Z,600
2016-04-24T18:23:05.494Z,564
2016-04-24T18:24:05.450Z,544
2016-04-24T18:25:05.421Z,528
2016-04-24T18:26:05.361Z,520
2016-04-24T18:27:05.364Z,492
2016-04-24T18:28:05.335Z,456
2016-04-24T18:29:05.307Z,416
2016-04-24T18:30:05.279Z,376
2016-04-24T18:31:05.266Z,364
2016-04-24T18:32:05.221Z,352
2016-04-24T18:33:05.192Z,328
2016-04-24T18:34:05.180Z,304
2016-04-24T18:35:05.135Z,292
2016-04-24T18:36:05.107Z,272
2016-04-24T18:37:05.078Z,256
2016-04-24T18:38:05.066Z,236
2016-04-24T18:39:05.021Z,220
2016-04-24T18:40:04.993Z,204
2016-04-24T18:41:05.183Z,188
2016-04-24T18:42:04.936Z,172
2016-04-24T18:43:04.907Z,160
2016-04-24T18:44:04.895Z,144
2016-04-24T18:45:04.850Z,132
2016-04-24T18:46:04.837Z,120
2016-04-24T18:47:04.808Z,108
2016-04-24T18:48:04.764Z,96
2016-04-24T18:49:04.752Z,84
2016-04-24T18:50:04.723Z,76
2016-04-24T18:51:04.694Z,68
2016-04-24T18:52:04.650Z,60
2016-04-24T18:53:04.638Z,52
2016-04-24T18:54:04.609Z,44
2016-04-24T18:55:04.596Z,44
2016-04-24T18:56:05.161Z,40
2016-04-24T18:57:04.523Z,32
2016-04-24T18:58:04.479Z,28
2016-04-24T18:59:04.482Z,24
2016-04-24T19:00:04.438Z,24
2016-04-24T19:01:04.409Z,20
2016-04-24T19:02:04.365Z,16
2016-04-24T19:03:04.335Z,16
2016-04-24T19:04:04.307Z,12
2016-04-24T19:05:04.310Z,12
2016-04-24T19:06:04.281Z,8
2016-04-24T19:07:04.254Z,8
2016-04-24T19:08:04.209Z,8
2016-04-24T19:09:04.181Z,8
2016-04-24T19:10:04.137Z,8
2016-04-24T19:11:04.701Z,4
2016-04-24T19:12:04.376Z,4
2016-04-24T19:13:04.066Z,0
2016-04-24T19:14:04.054Z,4
2016-04-24T19:15:03.992Z,4
2016-04-24T19:16:03.981Z,4
2016-04-24T19:17:03.953Z,4
2016-04-24T19:18:03.923Z,0
2016-04-24T19:19:03.926Z,0
2016-04-24T19:20:03.897Z,0
2016-04-24T19:21:03.838Z,0
2016-04-24T19:22:03.809Z,0
2016-04-24T19:23:03.787Z,0
2016-04-24T19:24:03.744Z,0
2016-04-24T19:25:03.715Z,0
2016-04-24T19:26:04.014Z,0
2016-04-24T19:27:03.564Z,0
2016-04-24T19:28:03.645Z,0
2016-04-24T19:29:03.616Z,0
2016-04-24T19:30:03.573Z,0
2016-04-24T19:31:03.559Z,0
2016-04-24T19:32:03.530Z,0
2016-04-24T19:33:03.471Z,0
2016-04-24T19:34:03.458Z,0
2016-04-24T19:35:03.429Z,0
2016-04-24T19:36:03.400Z,0
2016-04-24T19:37:03.372Z,0
2016-04-24T19:38:03.336Z,0
2016-04-24T19:39:03.307Z,0
2016-04-24T19:40:03.263Z,0
2016-04-24T19:41:03.250Z,0
2016-04-24T19:42:04.565Z,0
2016-04-24T19:43:03.224Z,0
2016-04-24T19:44:03.164Z,0
2016-04-24T19:45:03.167Z,0
2016-04-24T19:46:03.122Z,0
2016-04-24T19:47:03.125Z,0
2016-04-24T19:48:03.049Z,0
2016-04-24T19:49:03.021Z,0
2016-04-24T19:50:02.993Z,0
2016-04-24T19:51:02.949Z,0
2016-04-24T19:52:02.936Z,0
2016-04-24T19:53:02.907Z,0
2016-04-24T19:54:02.879Z,0
2016-04-24T19:55:02.850Z,0
2016-04-24T19:56:03.181Z,0
2016-04-24T19:57:02.714Z,0
2016-04-24T19:58:02.749Z,0
2016-04-24T19:59:02.720Z,0
2016-04-24T20:00:02.691Z,0
2016-04-24T20:01:02.662Z,0
2016-04-24T20:02:02.634Z,0
2016-04-24T20:03:02.606Z,0
2016-04-24T20:04:02.593Z,0
2016-04-24T20:05:02.127Z,0
2016-04-24T20:06:02.535Z,0
2016-04-24T20:07:02.550Z,0
2016-04-24T20:08:02.580Z,0
2016-04-24T20:09:02.595Z,0
2016-04-24T20:10:02.593Z,0
2016-04-24T20:11:02.467Z,0
2016-04-24T20:12:03.799Z,0
2016-04-24T20:13:02.582Z,0
2016-04-24T20:14:02.570Z,0
2016-04-24T20:15:02.541Z,0
2016-04-24T20:16:02.540Z,0
2016-04-24T20:17:02.533Z,0
2016-04-24T20:18:02.478Z,0
2016-04-24T20:19:02.454Z,0
2016-04-24T20:20:02.432Z,0
2016-04-24T20:21:02.423Z,0
2016-04-24T20:22:02.381Z,0
2016-04-24T20:23:02.386Z,0
2016-04-24T20:24:02.344Z,0
2016-04-24T20:25:02.318Z,0
2016-04-24T20:26:03.338Z,0
2016-04-24T20:27:01.951Z,0
2016-04-24T20:28:02.220Z,0
2016-04-24T20:29:02.177Z,0
2016-04-24T20:30:02.180Z,0
2016-04-24T20:31:02.121Z,0
2016-04-24T20:32:02.108Z,0
2016-04-24T20:33:02.080Z,0
2016-04-24T20:34:02.050Z,0
2016-04-24T20:35:02.022Z,0
2016-04-24T20:36:01.978Z,0
2016-04-24T20:37:01.967Z,0
2016-04-24T20:38:01.937Z,0
2016-04-24T20:39:01.893Z,0
2016-04-24T20:40:01.864Z,0
2016-04-24T20:41:01.930Z,0
2016-04-24T20:42:01.698Z,0
2016-04-24T20:43:01.778Z,0
2016-04-24T20:44:01.766Z,0
2016-04-24T20:45:01.722Z,0
2016-04-24T20:46:01.708Z,0
2016-04-24T20:47:01.664Z,0
2016-04-24T20:48:01.652Z,0
2016-04-24T20:49:01.607Z,0
2016-04-24T20:50:01.580Z,0
2016-04-24T20:51:01.550Z,0
2016-04-24T20:52:01.522Z,0
2016-04-24T20:53:01.493Z,0
2016-04-24T20:54:01.497Z,0
2016-04-24T20:55:01.452Z,0
2016-04-24T20:56:01.408Z,0
2016-04-24T20:57:01.488Z,0
2016-04-24T20:58:01.351Z,0
2016-04-24T20:59:01.681Z,0
2016-04-24T21:00:01.293Z,0
2016-04-24T21:01:01.265Z,0
2016-04-24T21:02:01.252Z,0
2016-04-24T21:03:01.223Z,0
2016-04-24T21:04:01.179Z,0
2016-04-24T21:05:01.135Z,0
2016-04-24T21:06:01.106Z,0
2016-04-24T21:07:01.078Z,0
2016-04-24T21:08:01.065Z,0
2016-04-24T21:09:01.005Z,0
2016-04-24T21:10:01.008Z,0
2016-04-24T21:11:00.964Z,0
2016-04-24T21:12:00.936Z,0
2016-04-24T21:13:00.906Z,0
2016-04-24T21:14:00.144Z,0
2016-04-24T21:15:00.849Z,0
2016-04-24T21:16:00.821Z,0
2016-04-24T21:17:00.777Z,0
2016-04-24T21:18:00.748Z,0
2016-04-24T21:19:00.719Z,0
2016-04-24T21:20:00.707Z,0
2016-04-24T21:21:00.677Z,0
2016-04-24T21:22:00.634Z,0
2016-04-24T21:23:00.606Z,0
2016-04-24T21:24:00.577Z,0
2016-04-24T21:25:00.548Z,0
2016-04-24T21:26:00.519Z,0
2016-04-24T21:27:00.475Z,0
2016-04-24T21:28:00.478Z,0
2016-04-24T21:29:00.435Z,0
2016-04-24T21:30:00.421Z,0
2016-04-24T21:31:00.376Z,0
2016-04-24T21:32:00.333Z,0
2016-04-24T21:33:00.304Z,0
2016-04-24T21:34:00.290Z,0
2016-04-24T21:35:00.262Z,0
2016-04-24T21:36:00.234Z,0
2016-04-24T21:37:00.190Z,0
2016-04-24T21:38:00.161Z,0
2016-04-24T21:39:00.133Z,0
2016-04-24T21:40:00.136Z,0
2016-04-24T21:41:00.076Z,0
2016-04-24T21:41:59.937Z,0
2016-04-24T21:43:00.003Z,0
2016-04-24T21:43:59.990Z,0
2016-04-24T21:44:59.945Z,0
2016-04-24T21:45:59.917Z,0
2016-04-24T21:46:59.873Z,0
2016-04-24T21:47:59.860Z,0
2016-04-24T21:48:59.831Z,0
2016-04-24T21:49:59.788Z,0
2016-04-24T21:50:59.775Z,0
2016-04-24T21:51:59.747Z,0
2016-04-24T21:52:59.717Z,0
2016-04-24T21:53:59.688Z,0
2016-04-24T21:54:59.644Z,0
2016-04-24T21:55:59.632Z,0
2016-04-24T21:56:59.587Z,0
2016-04-24T21:57:59.559Z,0
2016-04-24T21:58:59.530Z,0
2016-04-24T21:59:59.485Z,0
2016-04-24T22:00:59.457Z,0
2016-04-24T22:01:59.429Z,0
2016-04-24T22:02:59.416Z,0
2016-04-24T22:03:59.371Z,0
2016-04-24T22:04:59.343Z,0
2016-04-24T22:05:59.314Z,0
2016-04-24T22:06:59.271Z,0
2016-04-24T22:08:03.054Z,0
2016-04-24T22:09:01.260Z,0
2016-04-24T22:10:03.731Z,0
2016-04-24T22:11:01.735Z,0
2016-04-24T22:12:00.003Z,0
2016-04-24T22:12:59.100Z,0
2016-04-24T22:13:59.086Z,0
2016-04-24T22:14:59.043Z,0
2016-04-24T22:15:59.014Z,0
2016-04-24T22:16:58.986Z,0
2016-04-24T22:17:58.941Z,0
2016-04-24T22:18:58.912Z,0
2016-04-24T22:19:58.899Z,0
2016-04-24T22:20:58.856Z,0
2016-04-24T22:21:58.827Z,0
2016-04-24T22:22:58.798Z,0
2016-04-24T22:23:58.769Z,0
2016-04-24T22:24:58.725Z,0
2016-04-24T22:25:58.697Z,0
2016-04-24T22:26:58.621Z,0
2016-04-24T22:27:58.936Z,0
2016-04-24T22:28:58.627Z,0
2016-04-24T22:29:58.582Z,0
2016-04-24T22:30:58.554Z,0
2016-04-24T22:31:58.526Z,0
2016-04-24T22:32:58.497Z,0
2016-04-24T22:33:58.468Z,0
2016-04-24T22:34:58.440Z,0
2016-04-24T22:35:58.411Z,0
2016-04-24T22:36:58.368Z,0
2016-04-24T22:37:58.338Z,0
2016-04-24T22:38:58.310Z,0
2016-04-24T22:39:58.298Z,0
2016-04-24T22:40:58.253Z,0
2016-04-24T22:41:58.240Z,0
2016-04-24T22:42:58.024Z,0
2016-04-24T22:43:58.183Z,0
2016-04-24T22:44:58.107Z,0
2016-04-24T22:45:58.078Z,0
2016-04-24T22:46:58.081Z,0
2016-04-24T22:47:58.037Z,0
2016-04-24T22:48:57.993Z,0
2016-04-24T22:49:57.995Z,0
2016-04-24T22:50:57.952Z,0
2016-04-24T22:51:57.908Z,0
2016-04-24T22:52:57.879Z,0
2016-04-24T22:53:57.850Z,0
2016-04-24T22:54:57.806Z,0
2016-04-24T22:55:57.793Z,0
2016-04-24T22:56:58.124Z,0
2016-04-24T22:57:57.689Z,0
2016-04-24T22:58:57.692Z,0
2016-04-24T22:59:57.663Z,0
2016-04-24T23:00:57.635Z,0
2016-04-24T23:01:57.606Z,0
2016-04-24T23:02:57.578Z,0
2016-04-24T23:03:57.549Z,0
2016-04-24T23:04:57.521Z,0
2016-04-24T23:05:57.492Z,0
2016-04-24T23:06:57.448Z,0
2016-04-24T23:07:57.418Z,0
2016-04-24T23:08:57.376Z,0
2016-04-24T23:09:57.362Z,0
2016-04-24T23:10:57.318Z,0
2016-04-24T23:11:57.476Z,0
2016-04-24T23:12:57.432Z,0
2016-04-24T23:13:57.248Z,0
2016-04-24T23:14:57.204Z,0
2016-04-24T23:15:57.159Z,0
2016-04-24T23:16:57.131Z,0